sensor_id;sensor_type;location;lat;lon;timestamp;P1;durP1;ratioP1;P2;durP2;ratioP2
64649;SDS011;51061;45.258;38.112;2022-10-23T00:02:12;20.40;;;7.72;;
64649;SDS011;51061;45.258;38.112;2022-10-23T00:04:38;18.52;;;7.05;;
64649;SDS011;51061;45.258;38.112;2022-10-23T00:07:04;16.35;;;5.85;;
64649;SDS011;51061;45.258;38.112;2022-10-23T00:09:30;8.32;;;4.38;;
64649;SDS011;51061;45.258;38.112;2022-10-23T00:11:56;15.95;;;6.10;;
64649;SDS011;51061;45.258;38.112;2022-10-23T00:14:22;20.38;;;6.53;;
64649;SDS011;51061;45.258;38.112;2022-10-23T00:16:49;16.57;;;5.10;;
64649;SDS011;51061;45.258;38.112;2022-10-23T00:19:15;14.30;;;5.00;;
64649;SDS011;51061;45.258;38.112;2022-10-23T00:21:41;13.15;;;4.85;;
64649;SDS011;51061;45.258;38.112;2022-10-23T00:24:08;14.50;;;5.35;;
64649;SDS011;51061;45.258;38.112;2022-10-23T00:26:34;14.57;;;5.20;;
64649;SDS011;51061;45.258;38.112;2022-10-23T00:29:02;19.27;;;5.43;;
64649;SDS011;51061;45.258;38.112;2022-10-23T00:31:28;10.68;;;5.32;;
64649;SDS011;51061;45.258;38.112;2022-10-23T00:33:54;16.00;;;5.15;;
64649;SDS011;51061;45.258;38.112;2022-10-23T00:36:20;19.13;;;6.45;;
64649;SDS011;51061;45.258;38.112;2022-10-23T00:38:47;19.45;;;5.35;;
64649;SDS011;51061;45.258;38.112;2022-10-23T00:41:15;14.17;;;5.83;;
64649;SDS011;51061;45.258;38.112;2022-10-23T00:46:44;18.27;;;4.90;;
64649;SDS011;51061;45.258;38.112;2022-10-23T00:49:10;16.08;;;5.55;;
64649;SDS011;51061;45.258;38.112;2022-10-23T00:51:39;16.10;;;5.00;;
64649;SDS011;51061;45.258;38.112;2022-10-23T00:54:08;13.30;;;4.60;;
64649;SDS011;51061;45.258;38.112;2022-10-23T00:56:38;19.63;;;5.43;;
64649;SDS011;51061;45.258;38.112;2022-10-23T00:59:06;23.70;;;5.60;;
64649;SDS011;51061;45.258;38.112;2022-10-23T01:01:32;19.77;;;5.85;;
64649;SDS011;51061;45.258;38.112;2022-10-23T01:03:59;10.82;;;4.85;;
64649;SDS011;51061;45.258;38.112;2022-10-23T01:11:27;14.73;;;5.20;;
64649;SDS011;51061;45.258;38.112;2022-10-23T01:17:08;17.67;;;6.00;;
64649;SDS011;51061;45.258;38.112;2022-10-23T01:19:43;20.97;;;6.80;;
64649;SDS011;51061;45.258;38.112;2022-10-23T01:28:10;21.80;;;7.30;;
64649;SDS011;51061;45.258;38.112;2022-10-23T01:30:45;22.30;;;7.33;;
64649;SDS011;51061;45.258;38.112;2022-10-23T01:33:14;21.23;;;7.47;;
64649;SDS011;51061;45.258;38.112;2022-10-23T01:35:50;16.13;;;7.23;;
64649;SDS011;51061;45.258;38.112;2022-10-23T01:38:38;16.90;;;6.00;;
64649;SDS011;51061;45.258;38.112;2022-10-23T01:41:28;21.97;;;7.60;;
64649;SDS011;51061;45.258;38.112;2022-10-23T01:46:37;13.27;;;5.57;;
64649;SDS011;51061;45.258;38.112;2022-10-23T01:49:07;17.67;;;5.73;;
64649;SDS011;51061;45.258;38.112;2022-10-23T01:51:36;15.47;;;4.47;;
64649;SDS011;51061;45.258;38.112;2022-10-23T01:54:08;14.27;;;4.77;;
64649;SDS011;51061;45.258;38.112;2022-10-23T01:56:38;19.53;;;6.47;;
64649;SDS011;51061;45.258;38.112;2022-10-23T01:59:09;21.13;;;6.27;;
64649;SDS011;51061;45.258;38.112;2022-10-23T02:01:41;13.53;;;4.27;;
64649;SDS011;51061;45.258;38.112;2022-10-23T02:04:11;14.47;;;4.63;;
64649;SDS011;51061;45.258;38.112;2022-10-23T02:06:42;12.20;;;5.00;;
64649;SDS011;51061;45.258;38.112;2022-10-23T02:09:08;12.55;;;4.57;;
64649;SDS011;51061;45.258;38.112;2022-10-23T02:11:36;11.57;;;4.65;;
64649;SDS011;51061;45.258;38.112;2022-10-23T02:14:10;7.87;;;3.03;;
64649;SDS011;51061;45.258;38.112;2022-10-23T02:16:51;9.93;;;4.20;;
64649;SDS011;51061;45.258;38.112;2022-10-23T02:24:49;13.43;;;3.37;;
64649;SDS011;51061;45.258;38.112;2022-10-23T02:27:17;9.03;;;3.97;;
64649;SDS011;51061;45.258;38.112;2022-10-23T02:30:07;10.47;;;4.17;;
64649;SDS011;51061;45.258;38.112;2022-10-23T02:32:35;8.80;;;3.47;;
64649;SDS011;51061;45.258;38.112;2022-10-23T02:35:06;9.53;;;3.13;;
64649;SDS011;51061;45.258;38.112;2022-10-23T02:37:33;10.50;;;3.30;;
64649;SDS011;51061;45.258;38.112;2022-10-23T02:40:02;14.73;;;3.90;;
64649;SDS011;51061;45.258;38.112;2022-10-23T02:42:56;11.37;;;3.93;;
64649;SDS011;51061;45.258;38.112;2022-10-23T02:45:28;11.43;;;3.63;;
64649;SDS011;51061;45.258;38.112;2022-10-23T02:48:00;10.67;;;3.30;;
64649;SDS011;51061;45.258;38.112;2022-10-23T02:55:46;7.53;;;3.23;;
64649;SDS011;51061;45.258;38.112;2022-10-23T03:01:14;10.33;;;3.87;;
64649;SDS011;51061;45.258;38.112;2022-10-23T03:03:44;11.13;;;3.57;;
64649;SDS011;51061;45.258;38.112;2022-10-23T03:06:16;14.03;;;3.80;;
64649;SDS011;51061;45.258;38.112;2022-10-23T03:11:18;7.00;;;2.97;;
64649;SDS011;51061;45.258;38.112;2022-10-23T03:16:10;8.70;;;3.13;;
64649;SDS011;51061;45.258;38.112;2022-10-23T03:18:36;7.28;;;3.15;;
64649;SDS011;51061;45.258;38.112;2022-10-23T03:21:02;8.10;;;2.80;;
64649;SDS011;51061;45.258;38.112;2022-10-23T03:23:32;8.80;;;3.40;;
64649;SDS011;51061;45.258;38.112;2022-10-23T03:25:58;4.67;;;2.50;;
64649;SDS011;51061;45.258;38.112;2022-10-23T03:28:38;10.53;;;3.10;;
64649;SDS011;51061;45.258;38.112;2022-10-23T03:31:04;7.80;;;2.33;;
64649;SDS011;51061;45.258;38.112;2022-10-23T03:33:31;8.60;;;3.08;;
64649;SDS011;51061;45.258;38.112;2022-10-23T03:36:06;7.27;;;2.77;;
64649;SDS011;51061;45.258;38.112;2022-10-23T03:38:33;5.57;;;2.33;;
64649;SDS011;51061;45.258;38.112;2022-10-23T03:41:00;9.20;;;3.40;;
64649;SDS011;51061;45.258;38.112;2022-10-23T03:43:27;8.63;;;3.20;;
64649;SDS011;51061;45.258;38.112;2022-10-23T03:45:54;16.67;;;6.63;;
64649;SDS011;51061;45.258;38.112;2022-10-23T03:48:23;24.33;;;8.00;;
64649;SDS011;51061;45.258;38.112;2022-10-23T03:50:50;24.73;;;9.63;;
64649;SDS011;51061;45.258;38.112;2022-10-23T03:53:16;30.05;;;9.85;;
64649;SDS011;51061;45.258;38.112;2022-10-23T03:55:43;31.83;;;12.02;;
64649;SDS011;51061;45.258;38.112;2022-10-23T03:58:09;30.47;;;11.27;;
64649;SDS011;51061;45.258;38.112;2022-10-23T04:00:35;31.70;;;12.02;;
64649;SDS011;51061;45.258;38.112;2022-10-23T04:03:02;40.90;;;13.97;;
64649;SDS011;51061;45.258;38.112;2022-10-23T04:05:28;37.60;;;11.90;;
64649;SDS011;51061;45.258;38.112;2022-10-23T04:07:57;35.83;;;10.87;;
64649;SDS011;51061;45.258;38.112;2022-10-23T04:10:23;44.53;;;12.60;;
64649;SDS011;51061;45.258;38.112;2022-10-23T04:12:49;21.42;;;7.43;;
64649;SDS011;51061;45.258;38.112;2022-10-23T04:15:15;22.83;;;7.75;;
64649;SDS011;51061;45.258;38.112;2022-10-23T04:17:44;24.30;;;7.43;;
64649;SDS011;51061;45.258;38.112;2022-10-23T04:20:11;19.90;;;6.53;;
64649;SDS011;51061;45.258;38.112;2022-10-23T04:22:37;13.85;;;4.85;;
64649;SDS011;51061;45.258;38.112;2022-10-23T04:25:04;13.50;;;3.53;;
64649;SDS011;51061;45.258;38.112;2022-10-23T04:27:32;10.73;;;2.63;;
64649;SDS011;51061;45.258;38.112;2022-10-23T04:29:59;8.90;;;3.00;;
64649;SDS011;51061;45.258;38.112;2022-10-23T04:34:51;5.30;;;2.07;;
64649;SDS011;51061;45.258;38.112;2022-10-23T04:37:17;5.95;;;2.15;;
64649;SDS011;51061;45.258;38.112;2022-10-23T04:39:44;11.88;;;2.88;;
64649;SDS011;51061;45.258;38.112;2022-10-23T04:42:12;3.77;;;1.43;;
64649;SDS011;51061;45.258;38.112;2022-10-23T04:47:04;9.90;;;2.40;;
64649;SDS011;51061;45.258;38.112;2022-10-23T04:49:34;6.30;;;2.73;;
64649;SDS011;51061;45.258;38.112;2022-10-23T04:52:14;4.87;;;2.00;;
64649;SDS011;51061;45.258;38.112;2022-10-23T04:54:58;5.73;;;2.07;;
64649;SDS011;51061;45.258;38.112;2022-10-23T04:57:40;5.80;;;2.10;;
64649;SDS011;51061;45.258;38.112;2022-10-23T05:00:08;6.23;;;2.37;;
64649;SDS011;51061;45.258;38.112;2022-10-23T05:02:44;5.70;;;2.22;;
64649;SDS011;51061;45.258;38.112;2022-10-23T05:05:12;8.50;;;2.10;;
64649;SDS011;51061;45.258;38.112;2022-10-23T05:07:41;9.20;;;2.17;;
64649;SDS011;51061;45.258;38.112;2022-10-23T05:10:25;6.57;;;2.30;;
64649;SDS011;51061;45.258;38.112;2022-10-23T05:13:15;5.50;;;2.33;;
64649;SDS011;51061;45.258;38.112;2022-10-23T05:15:45;2.70;;;1.60;;
64649;SDS011;51061;45.258;38.112;2022-10-23T05:18:19;5.07;;;2.10;;
64649;SDS011;51061;45.258;38.112;2022-10-23T05:20:54;12.70;;;2.10;;
64649;SDS011;51061;45.258;38.112;2022-10-23T05:23:26;4.87;;;2.13;;
64649;SDS011;51061;45.258;38.112;2022-10-23T05:25:57;2.80;;;1.33;;
64649;SDS011;51061;45.258;38.112;2022-10-23T05:28:24;1.23;;;1.10;;
64649;SDS011;51061;45.258;38.112;2022-10-23T05:30:50;1.98;;;1.15;;
64649;SDS011;51061;45.258;38.112;2022-10-23T05:33:16;5.50;;;1.95;;
64649;SDS011;51061;45.258;38.112;2022-10-23T05:35:43;4.93;;;1.33;;
64649;SDS011;51061;45.258;38.112;2022-10-23T05:38:11;4.63;;;2.20;;
64649;SDS011;51061;45.258;38.112;2022-10-23T05:40:39;6.23;;;1.90;;
64649;SDS011;51061;45.258;38.112;2022-10-23T05:43:07;5.23;;;1.70;;
64649;SDS011;51061;45.258;38.112;2022-10-23T05:45:53;9.30;;;2.40;;
64649;SDS011;51061;45.258;38.112;2022-10-23T05:48:32;4.90;;;1.70;;
